Pelkie, Michigan
Current Conditions -  °F | °C
As of 4:53 PM on Friday 24 Oct 2014 (Local Time) from KCMX Reporting Station
Clear Clear  
Wind Chill: 67°   Ceiling: Unl
Heat Index: 67°   Visibility: 10mi
Dew Point: 36°   Wind: 10mph
Humidity: 32%   Direction: 220°SW
Pressure: 29.77"   Gusts: NA
Location:  46.81°N, 88.64°W
Report Text: KCMX 242053Z AUTO 22009KT 10SM CLR 19/02 A2977 RMK AO2 SLP081 T01940022 56024
Loading
Personal Weather Stations






























Interactive Weather Map
Tropical Storm Tracking
New forecast layout! Learn more

10-Day Weather Forecast

Advertisements
Track Severe Weather on mobile